createdAt,value
2018-09-05T00:03:52.541Z,20.74
2018-09-05T00:07:56.228Z,20.72
2018-09-05T00:11:59.795Z,20.73
2018-09-05T00:16:04.538Z,20.73
2018-09-05T00:20:08.099Z,20.72
2018-09-05T00:24:11.947Z,20.71
2018-09-05T00:28:15.410Z,20.69
2018-09-05T00:32:19.119Z,20.71
2018-09-05T00:36:22.585Z,20.68
2018-09-05T00:40:26.515Z,20.69
2018-09-05T00:44:30.079Z,20.70
2018-09-05T00:48:34.747Z,20.71
2018-09-05T00:52:38.210Z,20.71
2018-09-05T00:56:42.079Z,20.72
2018-09-05T01:00:45.644Z,20.69
2018-09-05T01:04:50.308Z,20.66
2018-09-05T01:08:53.888Z,20.67
2018-09-05T01:12:57.758Z,20.68
2018-09-05T01:17:03.101Z,20.68
2018-09-05T01:21:06.871Z,20.66
2018-09-05T01:25:10.540Z,20.63
2018-09-05T01:29:14.177Z,20.61
2018-09-05T01:33:17.719Z,20.57
2018-09-05T01:37:21.522Z,20.57
2018-09-05T01:41:25.151Z,20.53
2018-09-05T01:45:28.865Z,20.51
2018-09-05T01:49:32.579Z,20.50
2018-09-05T01:53:36.256Z,20.50
2018-09-05T01:57:39.843Z,20.50
2018-09-05T02:01:43.634Z,20.49
2018-09-05T02:05:47.419Z,20.46
2018-09-05T02:09:51.131Z,20.44
2018-09-05T02:13:54.570Z,20.43
2018-09-05T02:17:58.283Z,20.41
2018-09-05T02:22:01.892Z,20.39
2018-09-05T02:26:05.515Z,20.35
2018-09-05T02:30:09.127Z,20.30
2018-09-05T02:34:13.247Z,20.27
2018-09-05T02:38:16.857Z,20.27
2018-09-05T02:42:20.788Z,20.27
2018-09-05T02:46:24.384Z,20.24
2018-09-05T02:50:28.122Z,20.23
2018-09-05T02:54:31.818Z,20.21
2018-09-05T02:58:36.011Z,20.20
2018-09-05T03:02:39.527Z,20.20
2018-09-05T03:06:43.133Z,20.18
2018-09-05T03:10:46.655Z,20.15
2018-09-05T03:14:51.889Z,20.15
2018-09-05T03:18:55.744Z,20.10
2018-09-05T03:22:59.499Z,20.09
2018-09-05T03:27:03.043Z,20.05
2018-09-05T03:31:07.338Z,20.03
2018-09-05T03:35:10.879Z,20.03
2018-09-05T03:39:14.707Z,20.01
2018-09-05T03:43:18.301Z,20.03
2018-09-05T03:47:21.957Z,20.01
2018-09-05T03:51:25.511Z,20.01
2018-09-05T03:55:29.155Z,20.01
2018-09-05T03:59:32.758Z,20.02
2018-09-05T04:03:36.524Z,20.01
2018-09-05T04:07:40.086Z,19.98
2018-09-05T04:11:44.031Z,19.96
2018-09-05T04:15:47.494Z,19.93
2018-09-05T04:19:51.487Z,19.93
2018-09-05T04:23:55.020Z,19.90
2018-09-05T04:27:59.828Z,19.86
2018-09-05T04:32:03.926Z,19.84
2018-09-05T04:36:08.075Z,19.79
2018-09-05T04:40:11.543Z,19.76
2018-09-05T04:44:15.182Z,19.74
2018-09-05T04:48:18.839Z,19.73
2018-09-05T04:52:22.496Z,19.73
2018-09-05T04:56:26.472Z,19.71
2018-09-05T05:00:30.140Z,19.69
2018-09-05T05:04:34.349Z,19.68
2018-09-05T05:08:38.011Z,19.65
2018-09-05T05:12:41.598Z,19.64
2018-09-05T05:16:45.292Z,19.64
2018-09-05T05:20:48.937Z,19.61
2018-09-05T05:24:53.741Z,19.61
2018-09-05T05:28:57.287Z,19.62
2018-09-05T05:33:01.989Z,19.64
2018-09-05T05:37:05.469Z,19.66
2018-09-05T05:41:10.348Z,19.69
2018-09-05T05:45:13.848Z,19.73
2018-09-05T05:49:17.564Z,19.77
2018-09-05T05:53:21.090Z,19.80
2018-09-05T05:57:24.807Z,19.85
2018-09-05T06:01:28.376Z,19.91
2018-09-05T06:05:32.190Z,19.98
2018-09-05T06:09:35.918Z,20.03
2018-09-05T06:13:39.675Z,20.11
2018-09-05T06:17:43.254Z,20.19
2018-09-05T06:21:47.908Z,20.26
2018-09-05T06:25:51.641Z,20.37
2018-09-05T06:29:55.432Z,20.45
2018-09-05T06:33:59.015Z,20.51
2018-09-05T06:38:02.712Z,20.59
2018-09-05T06:42:06.719Z,20.67
2018-09-05T06:46:10.453Z,20.77
2018-09-05T06:50:14.048Z,20.84
2018-09-05T06:54:17.658Z,20.91
2018-09-05T06:58:21.310Z,20.99
2018-09-05T07:02:25.039Z,21.08
2018-09-05T07:06:28.545Z,21.17
2018-09-05T07:10:32.682Z,21.26
2018-09-05T07:14:36.263Z,21.35
2018-09-05T07:18:39.849Z,21.44
2018-09-05T07:22:43.312Z,21.54
2018-09-05T07:26:47.119Z,21.60
2018-09-05T07:30:50.698Z,21.69
2018-09-05T07:34:54.395Z,21.79
2018-09-05T07:38:58.431Z,21.87
2018-09-05T07:43:02.942Z,21.95
2018-09-05T07:47:06.512Z,22.04
2018-09-05T07:51:10.197Z,22.14
2018-09-05T07:55:13.943Z,22.27
2018-09-05T07:59:17.590Z,22.36
2018-09-05T08:03:21.144Z,22.47
2018-09-05T08:07:25.228Z,22.57
2018-09-05T08:11:28.809Z,22.68
2018-09-05T08:15:32.675Z,22.79
2018-09-05T08:19:36.295Z,22.89
2018-09-05T08:23:39.898Z,22.90
2018-09-05T08:27:43.692Z,22.93
2018-09-05T08:31:47.322Z,23.06
2018-09-05T08:35:51.187Z,23.12
2018-09-05T08:39:54.475Z,23.20
2018-09-05T08:43:58.172Z,23.33
2018-09-05T08:48:01.751Z,23.39
2018-09-05T08:52:05.406Z,23.44
2018-09-05T08:56:09.134Z,23.47
2018-09-05T09:00:12.634Z,23.46
2018-09-05T09:04:16.311Z,23.42
2018-09-05T09:08:19.917Z,23.46
2018-09-05T09:12:23.555Z,23.51
2018-09-05T09:16:27.152Z,23.55
2018-09-05T09:20:32.863Z,23.60
2018-09-05T09:24:36.523Z,23.67
2018-09-05T09:28:40.278Z,23.77
2018-09-05T09:32:43.742Z,23.85
2018-09-05T09:36:47.479Z,23.93
2018-09-05T09:40:51.166Z,23.99
2018-09-05T09:44:55.797Z,24.02
2018-09-05T09:48:59.539Z,24.05
2018-09-05T09:53:03.286Z,24.12
2018-09-05T09:57:06.863Z,24.24
2018-09-05T10:01:15.981Z,24.38
2018-09-05T10:05:24.856Z,24.50
2018-09-05T10:09:33.123Z,24.48
2018-09-05T10:13:42.094Z,24.49
2018-09-05T10:17:49.991Z,24.59
2018-09-05T10:21:54.607Z,24.51
2018-09-05T10:25:58.191Z,24.54
2018-09-05T10:30:01.747Z,24.68
2018-09-05T10:34:05.827Z,24.73
2018-09-05T10:38:09.332Z,24.66
2018-09-05T10:42:13.012Z,24.68
2018-09-05T10:46:16.700Z,24.77
2018-09-05T10:50:20.340Z,24.79
2018-09-05T10:54:24.755Z,24.95
2018-09-05T10:58:28.439Z,25.06
2018-09-05T11:02:32.039Z,25.03
2018-09-05T11:06:35.747Z,25.10
2018-09-05T11:10:39.293Z,25.16
2018-09-05T11:14:43.938Z,25.18
2018-09-05T11:18:47.771Z,25.18
2018-09-05T11:22:51.595Z,25.24
2018-09-05T11:26:55.095Z,25.35
2018-09-05T11:30:58.821Z,25.35
2018-09-05T11:35:03.562Z,25.30
2018-09-05T11:39:11.485Z,25.30
2018-09-05T11:43:15.172Z,25.31
2018-09-05T11:47:18.839Z,25.39
2018-09-05T11:51:23.007Z,25.46
2018-09-05T11:55:26.663Z,25.41
2018-09-05T11:59:30.325Z,25.45
2018-09-05T12:03:34.144Z,25.49
2018-09-05T12:07:37.733Z,25.52
2018-09-05T12:11:41.531Z,25.42
2018-09-05T12:15:45.250Z,25.42
2018-09-05T12:19:49.847Z,25.45
2018-09-05T12:23:53.694Z,25.47
2018-09-05T12:27:57.269Z,25.50
2018-09-05T12:32:00.722Z,25.58
2018-09-05T12:36:04.378Z,25.72
2018-09-05T12:40:08.080Z,25.62
2018-09-05T12:44:13.517Z,25.70
2018-09-05T12:48:16.986Z,25.79
2018-09-05T12:52:20.696Z,25.90
2018-09-05T12:56:24.299Z,25.97
2018-09-05T13:00:28.107Z,25.90
2018-09-05T13:04:31.684Z,25.81
2018-09-05T13:08:35.455Z,25.84
2018-09-05T13:12:39.386Z,25.87
2018-09-05T13:16:43.221Z,25.87
2018-09-05T13:20:46.871Z,25.82
2018-09-05T13:24:50.653Z,25.83
2018-09-05T13:28:54.267Z,25.87
2018-09-05T13:32:58.036Z,25.89
2018-09-05T13:37:01.720Z,25.98
2018-09-05T13:41:05.399Z,25.99
2018-09-05T13:45:08.950Z,25.96
2018-09-05T13:49:13.883Z,25.96
2018-09-05T13:53:17.511Z,25.87
2018-09-05T13:57:21.131Z,25.87
2018-09-05T14:01:24.761Z,25.91
2018-09-05T14:05:28.331Z,25.87
2018-09-05T14:09:31.833Z,25.86
2018-09-05T14:13:35.668Z,25.83
2018-09-05T14:17:39.387Z,25.82
2018-09-05T14:21:44.277Z,25.81
2018-09-05T14:25:47.832Z,25.77
2018-09-05T14:29:51.499Z,25.73
2018-09-05T14:33:55.374Z,25.68
2018-09-05T14:38:01.772Z,25.70
2018-09-05T14:42:05.505Z,25.68
2018-09-05T14:46:10.651Z,25.64
2018-09-05T14:50:14.430Z,25.59
2018-09-05T14:54:18.205Z,25.56
2018-09-05T14:58:21.782Z,25.55
2018-09-05T15:02:25.416Z,25.56
2018-09-05T15:06:29.004Z,25.51
2018-09-05T15:10:33.012Z,25.48
2018-09-05T15:14:36.553Z,25.50
2018-09-05T15:18:40.233Z,25.52
2018-09-05T15:22:43.921Z,25.52
2018-09-05T15:26:47.560Z,25.52
2018-09-05T15:30:52.872Z,25.53
2018-09-05T15:34:57.274Z,25.50
2018-09-05T15:39:01.179Z,25.49
2018-09-05T15:43:04.892Z,25.44
2018-09-05T15:47:08.684Z,25.42
2018-09-05T15:51:12.738Z,25.42
2018-09-05T15:55:16.663Z,25.41
2018-09-05T15:59:20.399Z,25.35
2018-09-05T16:03:24.189Z,25.31
2018-09-05T16:07:28.847Z,25.24
2018-09-05T16:11:32.642Z,25.21
2018-09-05T16:15:36.364Z,25.18
2018-09-05T16:19:39.892Z,25.18
2018-09-05T16:23:43.613Z,25.15
2018-09-05T16:27:47.189Z,25.13
2018-09-05T16:31:50.786Z,25.12
2018-09-05T16:35:54.637Z,25.12
2018-09-05T16:39:58.339Z,25.10
2018-09-05T16:44:02.079Z,25.08
2018-09-05T16:48:05.875Z,25.05
2018-09-05T16:52:09.633Z,25.03
2018-09-05T16:56:13.380Z,25.03
2018-09-05T17:00:17.426Z,24.99
2018-09-05T17:04:21.365Z,24.97
2018-09-05T17:08:24.988Z,24.93
2018-09-05T17:12:29.798Z,24.89
2018-09-05T17:16:33.476Z,24.83
2018-09-05T17:20:38.274Z,24.75
2018-09-05T17:24:41.890Z,24.69
2018-09-05T17:28:45.485Z,24.62
2018-09-05T17:32:49.112Z,24.55
2018-09-05T17:36:52.945Z,24.47
2018-09-05T17:40:56.505Z,24.41
2018-09-05T17:45:00.623Z,24.36
2018-09-05T17:49:04.286Z,24.28
2018-09-05T17:53:07.986Z,24.19
2018-09-05T17:57:11.723Z,24.13
2018-09-05T18:01:18.041Z,24.09
2018-09-05T18:05:21.688Z,24.03
2018-09-05T18:09:25.578Z,23.87
2018-09-05T18:13:29.861Z,23.76
2018-09-05T18:17:35.175Z,23.73
2018-09-05T18:21:39.351Z,23.69
2018-09-05T18:25:43.833Z,23.66
2018-09-05T18:29:48.102Z,23.62
2018-09-05T18:33:52.893Z,23.60
2018-09-05T18:37:57.103Z,23.55
2018-09-05T18:42:01.639Z,23.48
2018-09-05T18:46:10.481Z,23.43
2018-09-05T18:50:14.984Z,23.35
2018-09-05T18:54:19.238Z,23.27
2018-09-05T18:58:23.612Z,23.21
2018-09-05T19:02:27.941Z,23.16
2018-09-05T19:06:32.175Z,23.08
2018-09-05T19:10:37.421Z,22.99
2018-09-05T19:14:41.912Z,22.93
2018-09-05T19:18:47.231Z,22.84
2018-09-05T19:22:51.683Z,22.78
2018-09-05T19:26:56.912Z,22.74
2018-09-05T19:31:03.063Z,22.72
2018-09-05T19:35:07.324Z,22.69
2018-09-05T19:39:11.764Z,22.65
2018-09-05T19:43:16.041Z,22.59
2018-09-05T19:47:20.493Z,22.52
2018-09-05T19:51:24.952Z,22.48
2018-09-05T19:55:28.883Z,22.44
2018-09-05T19:59:32.730Z,22.38
2018-09-05T20:03:36.346Z,22.30
2018-09-05T20:07:39.981Z,22.26
2018-09-05T20:11:44.225Z,22.18
2018-09-05T20:15:47.691Z,22.14
2018-09-05T20:19:51.599Z,22.09
2018-09-05T20:23:55.290Z,22.02
2018-09-05T20:28:00.008Z,21.98
2018-09-05T20:32:03.538Z,21.94
2018-09-05T20:36:07.406Z,21.85
2018-09-05T20:40:10.923Z,21.78
2018-09-05T20:44:14.939Z,21.74
2018-09-05T20:48:19.551Z,21.69
2018-09-05T20:52:23.434Z,21.62
2018-09-05T20:56:27.536Z,21.58
2018-09-05T21:00:33.355Z,21.53
2018-09-05T21:04:38.083Z,21.45
2018-09-05T21:08:41.692Z,21.39
2018-09-05T21:12:45.292Z,21.33
2018-09-05T21:16:49.014Z,21.26
2018-09-05T21:20:52.745Z,21.19
2018-09-05T21:24:56.637Z,21.12
2018-09-05T21:29:00.203Z,21.04
2018-09-05T21:33:05.035Z,20.98
2018-09-05T21:37:08.770Z,20.90
2018-09-05T21:41:12.521Z,20.84
2018-09-05T21:45:16.645Z,20.78
2018-09-05T21:49:20.288Z,20.72
2018-09-05T21:53:24.280Z,20.66
2018-09-05T21:57:28.311Z,20.62
2018-09-05T22:01:31.891Z,20.59
2018-09-05T22:05:35.677Z,20.56
2018-09-05T22:09:39.352Z,20.51
2018-09-05T22:13:43.237Z,20.47
2018-09-05T22:17:46.835Z,20.42
2018-09-05T22:21:50.480Z,20.37
2018-09-05T22:25:54.179Z,20.30
2018-09-05T22:29:57.737Z,20.26
2018-09-05T22:34:01.447Z,20.20
2018-09-05T22:38:05.284Z,20.13
2018-09-05T22:42:08.996Z,20.10
2018-09-05T22:46:23.756Z,20.08
2018-09-05T22:51:15.366Z,20.06
2018-09-05T22:55:34.740Z,20.01
2018-09-05T23:02:28.278Z,19.94
2018-09-05T23:08:46.698Z,19.82
2018-09-05T23:15:06.484Z,19.70
2018-09-05T23:19:49.556Z,19.62
2018-09-05T23:23:56.080Z,19.56
2018-09-05T23:28:00.057Z,19.52
2018-09-05T23:32:03.702Z,19.52
2018-09-05T23:36:07.501Z,19.52
2018-09-05T23:40:10.932Z,19.49
2018-09-05T23:44:14.611Z,19.45
2018-09-05T23:48:18.269Z,19.41
2018-09-05T23:52:21.964Z,19.38
2018-09-05T23:56:25.540Z,19.38
